createdAt,value
2023-04-23T00:01:14.497Z,48.80
2023-04-23T00:21:46.082Z,48.67
2023-04-23T00:41:47.070Z,43.57
2023-04-23T01:17:28.023Z,43.87
2023-04-23T01:42:44.470Z,36.30
2023-04-23T02:13:31.099Z,38.87
2023-04-23T02:17:45.696Z,38.43
2023-04-23T02:43:29.498Z,39.07
2023-04-23T03:18:33.363Z,43.97
2023-04-23T04:19:24.103Z,38.00
2023-04-23T04:44:46.740Z,29.57
2023-04-23T05:05:30.682Z,23.77
2023-04-23T05:36:09.320Z,17.80
2023-04-23T06:11:37.166Z,15.97
2023-04-23T06:36:53.686Z,19.50
2023-04-23T07:06:46.666Z,14.00
2023-04-23T07:42:53.089Z,9.23
2023-04-23T07:47:17.402Z,9.60
2023-04-23T08:17:51.687Z,10.03
2023-04-23T08:43:45.187Z,8.97
2023-04-23T09:29:19.706Z,6.57
2023-04-23T09:59:47.098Z,5.60
2023-04-23T10:34:37.910Z,4.70
2023-04-23T11:15:49.768Z,3.73
2023-04-23T11:40:40.503Z,4.87
2023-04-23T12:21:03.461Z,4.17
2023-04-23T12:42:02.637Z,3.97
2023-04-23T13:07:05.272Z,4.32
2023-04-23T13:37:44.759Z,4.10
2023-04-23T13:57:47.780Z,5.65
2023-04-23T14:23:20.630Z,5.60
2023-04-23T15:28:49.170Z,4.85
2023-04-23T15:54:37.770Z,4.78
2023-04-23T16:19:52.376Z,5.95
2023-04-23T17:00:32.290Z,5.37
2023-04-23T17:30:50.396Z,5.73
2023-04-23T17:50:47.116Z,6.77
2023-04-23T18:31:07.538Z,7.93
2023-04-23T18:51:52.307Z,6.23
2023-04-23T19:16:44.381Z,8.17
2023-04-23T19:47:09.233Z,8.87
2023-04-23T20:12:32.929Z,7.97
2023-04-23T20:33:03.604Z,7.87
2023-04-23T21:29:00.921Z,11.97
2023-04-23T21:49:24.475Z,10.53
2023-04-23T22:19:53.363Z,10.57
2023-04-23T22:49:46.015Z,10.90
2023-04-23T23:15:38.775Z,11.57
2023-04-23T23:45:57.764Z,11.43
